createdAt,value
2022-08-28T00:00:37.494Z,16.61
2022-08-28T00:03:06.220Z,16.58
2022-08-28T00:05:36.299Z,16.55
2022-08-28T00:08:05.055Z,16.51
2022-08-28T00:10:33.601Z,16.55
2022-08-28T00:13:01.673Z,16.63
2022-08-28T00:15:32.732Z,16.65
2022-08-28T00:18:01.666Z,16.55
2022-08-28T00:20:31.380Z,16.57
2022-08-28T00:23:01.252Z,16.33
2022-08-28T00:25:31.605Z,16.38
2022-08-28T00:28:05.393Z,16.29
2022-08-28T00:30:39.008Z,16.10
2022-08-28T00:33:10.675Z,16.26
2022-08-28T00:35:41.142Z,16.28
2022-08-28T00:38:11.604Z,16.31
2022-08-28T00:40:41.298Z,16.24
2022-08-28T00:43:11.359Z,16.22
2022-08-28T00:45:40.240Z,16.32
2022-08-28T00:48:09.266Z,16.44
2022-08-28T00:50:51.701Z,16.45
2022-08-28T00:53:23.542Z,16.41
2022-08-28T00:55:57.054Z,16.30
2022-08-28T00:58:25.122Z,16.20
2022-08-28T01:01:51.223Z,16.37
2022-08-28T01:04:21.503Z,16.27
2022-08-28T01:06:52.693Z,16.23
2022-08-28T01:09:25.895Z,16.17
2022-08-28T01:11:59.187Z,16.29
2022-08-28T01:14:28.826Z,16.11
2022-08-28T01:16:58.492Z,16.01
2022-08-28T01:19:33.037Z,15.91
2022-08-28T01:22:13.889Z,16.02
2022-08-28T01:24:45.084Z,15.84
2022-08-28T01:27:13.909Z,15.86
2022-08-28T01:29:42.168Z,15.86
2022-08-28T01:32:14.077Z,15.84
2022-08-28T01:34:42.173Z,15.90
2022-08-28T01:37:10.204Z,15.85
2022-08-28T01:39:38.260Z,15.76
2022-08-28T01:42:07.924Z,15.81
2022-08-28T01:44:36.064Z,15.80
2022-08-28T01:47:04.126Z,15.88
2022-08-28T01:49:32.193Z,15.92
2022-08-28T01:52:00.800Z,15.93
2022-08-28T01:54:31.654Z,15.93
2022-08-28T01:57:00.200Z,15.88
2022-08-28T01:59:29.966Z,15.86
2022-08-28T02:01:58.038Z,15.76
2022-08-28T02:04:31.650Z,15.74
2022-08-28T02:07:00.825Z,15.76
2022-08-28T02:09:29.152Z,15.73
2022-08-28T02:11:57.466Z,15.86
2022-08-28T02:14:25.528Z,15.83
2022-08-28T02:16:55.036Z,15.70
2022-08-28T02:19:23.168Z,15.66
2022-08-28T02:21:51.294Z,15.59
2022-08-28T02:24:20.421Z,15.60
2022-08-28T02:26:48.525Z,15.71
2022-08-28T02:29:16.635Z,15.68
2022-08-28T02:31:44.760Z,15.17
2022-08-28T02:34:14.290Z,15.00
2022-08-28T02:36:42.936Z,15.40
2022-08-28T02:39:11.531Z,15.49
2022-08-28T02:41:39.592Z,15.44
2022-08-28T02:44:07.721Z,15.45
2022-08-28T02:46:35.848Z,15.40
2022-08-28T02:49:03.969Z,15.22
2022-08-28T02:51:34.813Z,15.32
2022-08-28T02:54:03.640Z,15.06
2022-08-28T02:56:32.125Z,15.16
2022-08-28T02:59:00.193Z,15.38
2022-08-28T03:01:28.337Z,15.43
2022-08-28T03:03:56.465Z,15.29
2022-08-28T03:06:24.540Z,15.03
2022-08-28T03:08:54.026Z,15.04
2022-08-28T03:11:23.058Z,15.05
2022-08-28T03:13:51.327Z,15.08
2022-08-28T03:16:19.884Z,15.22
2022-08-28T03:18:47.953Z,15.17
2022-08-28T03:21:15.977Z,14.97
2022-08-28T03:23:44.112Z,14.96
2022-08-28T03:26:16.170Z,15.04
2022-08-28T03:28:48.442Z,15.10
2022-08-28T03:31:20.521Z,15.13
2022-08-28T03:33:49.598Z,15.04
2022-08-28T03:36:22.636Z,14.88
2022-08-28T03:38:51.081Z,14.82
2022-08-28T03:41:24.352Z,14.78
2022-08-28T03:43:52.951Z,14.71
2022-08-28T03:46:24.025Z,14.61
2022-08-28T03:48:53.702Z,14.69
2022-08-28T03:51:27.968Z,14.73
2022-08-28T03:53:58.244Z,14.80
2022-08-28T03:56:29.854Z,14.82
2022-08-28T03:59:00.149Z,14.79
2022-08-28T04:01:28.530Z,14.69
2022-08-28T04:03:57.217Z,14.77
2022-08-28T04:06:25.830Z,14.73
2022-08-28T04:08:53.883Z,14.71
2022-08-28T04:11:21.953Z,14.73
2022-08-28T04:13:51.715Z,14.61
2022-08-28T04:16:20.097Z,14.75
2022-08-28T04:18:50.293Z,14.73
2022-08-28T04:21:20.693Z,14.56
2022-08-28T04:23:49.461Z,14.52
2022-08-28T04:26:20.552Z,14.66
2022-08-28T04:28:49.632Z,14.63
2022-08-28T04:31:32.352Z,14.34
2022-08-28T04:34:01.220Z,14.17
2022-08-28T04:36:29.337Z,14.27
2022-08-28T04:38:58.698Z,14.26
2022-08-28T04:41:27.763Z,14.28
2022-08-28T04:43:57.614Z,14.25
2022-08-28T04:46:31.295Z,14.35
2022-08-28T04:48:59.640Z,14.42
2022-08-28T04:51:27.689Z,14.38
2022-08-28T04:53:55.896Z,14.31
2022-08-28T04:56:24.032Z,14.37
2022-08-28T04:58:52.235Z,14.34
2022-08-28T05:01:24.662Z,14.32
2022-08-28T05:03:57.796Z,14.28
2022-08-28T05:06:28.209Z,14.26
2022-08-28T05:08:57.534Z,14.24
2022-08-28T05:11:34.237Z,14.28
2022-08-28T05:14:04.628Z,14.39
2022-08-28T05:16:34.641Z,14.44
2022-08-28T05:19:04.842Z,14.50
2022-08-28T05:21:33.024Z,14.71
2022-08-28T05:24:01.135Z,14.66
2022-08-28T05:26:30.184Z,14.90
2022-08-28T05:28:59.367Z,14.94
2022-08-28T05:31:30.002Z,15.10
2022-08-28T05:33:58.771Z,15.27
2022-08-28T05:36:32.528Z,15.36
2022-08-28T05:39:02.497Z,15.32
2022-08-28T05:41:32.806Z,15.34
2022-08-28T05:44:02.519Z,15.30
2022-08-28T05:46:30.992Z,15.43
2022-08-28T05:49:00.371Z,15.48
2022-08-28T05:51:29.951Z,15.49
2022-08-28T05:53:58.872Z,15.42
2022-08-28T05:56:30.022Z,15.49
2022-08-28T05:58:58.729Z,15.59
2022-08-28T06:01:29.450Z,15.79
2022-08-28T06:04:00.814Z,16.03
2022-08-28T06:06:34.391Z,16.08
2022-08-28T06:09:05.454Z,16.07
2022-08-28T06:11:33.815Z,16.08
2022-08-28T06:14:04.671Z,16.25
2022-08-28T06:16:35.031Z,16.41
2022-08-28T06:19:03.252Z,16.42
2022-08-28T06:21:33.595Z,16.61
2022-08-28T06:24:01.666Z,16.53
2022-08-28T06:26:29.800Z,16.64
2022-08-28T06:29:01.261Z,16.71
2022-08-28T06:31:33.453Z,16.71
2022-08-28T06:34:02.671Z,16.77
2022-08-28T06:36:35.628Z,16.83
2022-08-28T06:39:06.037Z,16.95
2022-08-28T06:41:35.662Z,16.71
2022-08-28T06:44:04.066Z,16.80
2022-08-28T06:46:33.349Z,16.94
2022-08-28T06:49:06.118Z,16.84
2022-08-28T06:51:35.770Z,16.91
2022-08-28T06:54:03.997Z,16.96
2022-08-28T06:56:32.987Z,17.09
2022-08-28T06:59:01.317Z,16.86
2022-08-28T07:01:32.563Z,16.98
2022-08-28T07:04:05.383Z,17.18
2022-08-28T07:06:37.002Z,17.02
2022-08-28T07:09:07.340Z,16.80
2022-08-28T07:11:37.089Z,16.75
2022-08-28T07:14:06.154Z,16.69
2022-08-28T07:16:38.450Z,16.84
2022-08-28T07:19:10.409Z,16.67
2022-08-28T07:21:42.460Z,17.04
2022-08-28T07:24:11.499Z,17.33
2022-08-28T07:26:41.661Z,17.50
2022-08-28T07:29:11.614Z,17.72
2022-08-28T07:31:42.493Z,17.94
2022-08-28T07:34:12.401Z,18.08
2022-08-28T07:36:42.528Z,18.10
2022-08-28T07:39:11.774Z,18.08
2022-08-28T07:41:42.919Z,18.41
2022-08-28T07:44:31.090Z,18.39
2022-08-28T07:47:02.353Z,18.44
2022-08-28T07:49:31.553Z,18.44
2022-08-28T07:52:01.417Z,18.15
2022-08-28T07:54:29.536Z,18.21
2022-08-28T07:56:57.589Z,18.03
2022-08-28T07:59:25.665Z,17.85
2022-08-28T08:01:54.311Z,17.85
2022-08-28T08:04:24.572Z,17.93
2022-08-28T08:06:57.897Z,18.18
2022-08-28T08:09:28.643Z,18.28
2022-08-28T08:11:57.653Z,18.30
2022-08-28T08:14:26.067Z,18.42
2022-08-28T08:16:54.424Z,18.59
2022-08-28T08:19:22.571Z,18.75
2022-08-28T08:21:55.086Z,18.94
2022-08-28T08:24:26.576Z,19.06
2022-08-28T08:27:00.460Z,19.27
2022-08-28T08:29:32.499Z,19.56
2022-08-28T08:32:06.450Z,19.85
2022-08-28T08:34:36.605Z,20.04
2022-08-28T08:37:05.864Z,19.90
2022-08-28T08:39:34.486Z,20.09
2022-08-28T08:42:06.452Z,20.19
2022-08-28T08:44:37.902Z,20.35
2022-08-28T08:47:15.017Z,20.49
2022-08-28T08:49:48.922Z,20.19
2022-08-28T08:52:32.299Z,20.20
2022-08-28T08:55:10.065Z,20.39
2022-08-28T08:57:40.235Z,20.72
2022-08-28T09:00:15.806Z,20.51
2022-08-28T09:02:50.470Z,20.46
2022-08-28T09:05:22.223Z,20.99
2022-08-28T09:07:56.845Z,20.78
2022-08-28T09:10:26.945Z,20.49
2022-08-28T09:13:01.622Z,20.77
2022-08-28T09:15:35.238Z,20.89
2022-08-28T09:18:08.118Z,20.39
2022-08-28T09:20:36.162Z,20.58
2022-08-28T09:23:12.593Z,20.42
2022-08-28T09:25:53.509Z,20.73
2022-08-28T09:28:25.080Z,20.87
2022-08-28T09:31:01.197Z,20.86
2022-08-28T09:33:42.304Z,21.42
2022-08-28T09:36:33.582Z,21.58
2022-08-28T09:39:12.311Z,21.70
2022-08-28T09:42:04.660Z,21.56
2022-08-28T09:44:34.274Z,21.86
2022-08-28T09:47:02.478Z,22.47
2022-08-28T09:49:31.956Z,22.59
2022-08-28T09:52:01.761Z,22.81
2022-08-28T09:54:37.486Z,21.94
2022-08-28T09:57:05.805Z,21.81
2022-08-28T09:59:35.277Z,22.34
2022-08-28T10:02:22.452Z,22.33
2022-08-28T10:05:00.198Z,21.95
2022-08-28T10:07:38.644Z,21.77
2022-08-28T10:10:19.075Z,22.08
2022-08-28T10:13:00.393Z,22.78
2022-08-28T10:15:35.055Z,22.45
2022-08-28T10:18:21.617Z,21.97
2022-08-28T10:21:00.064Z,22.58
2022-08-28T10:23:39.618Z,23.16
2022-08-28T10:26:25.314Z,24.03
2022-08-28T10:29:04.212Z,23.98
2022-08-28T10:31:40.082Z,23.49
2022-08-28T10:34:23.303Z,24.06
2022-08-28T10:37:01.631Z,24.18
2022-08-28T10:39:41.070Z,23.87
2022-08-28T10:42:09.215Z,23.29
2022-08-28T10:44:43.885Z,24.02
2022-08-28T10:47:15.288Z,24.33
2022-08-28T10:49:46.377Z,24.40
2022-08-28T10:52:20.901Z,23.05
2022-08-28T10:54:53.598Z,22.99
2022-08-28T10:57:34.996Z,23.61
2022-08-28T11:00:11.240Z,23.29
2022-08-28T11:02:42.591Z,24.13
2022-08-28T11:05:11.709Z,24.26
2022-08-28T11:07:46.369Z,24.54
2022-08-28T11:10:21.536Z,24.39
2022-08-28T11:12:52.321Z,24.89
2022-08-28T11:15:42.945Z,25.17
2022-08-28T11:18:57.028Z,24.56
2022-08-28T11:21:30.199Z,25.06
2022-08-28T11:24:04.782Z,25.45
2022-08-28T11:26:42.482Z,25.49
2022-08-28T11:29:10.624Z,25.47
2022-08-28T11:31:42.555Z,25.05
2022-08-28T11:34:49.130Z,25.66
2022-08-28T11:37:38.410Z,24.78
2022-08-28T11:40:18.651Z,25.29
2022-08-28T11:42:48.863Z,25.00
2022-08-28T11:45:22.949Z,24.92
2022-08-28T11:47:56.547Z,25.56
2022-08-28T11:50:29.778Z,26.30
2022-08-28T11:53:46.196Z,26.08
2022-08-28T11:56:33.541Z,25.80
2022-08-28T11:59:18.560Z,26.00
2022-08-28T12:01:46.925Z,25.62
2022-08-28T12:04:17.778Z,24.76
2022-08-28T12:06:55.617Z,25.38
2022-08-28T12:09:42.544Z,25.91
2022-08-28T12:12:30.060Z,25.87
2022-08-28T12:15:01.093Z,25.90
2022-08-28T12:17:43.001Z,26.44
2022-08-28T12:20:17.370Z,25.63
2022-08-28T12:22:50.396Z,25.77
2022-08-28T12:25:29.255Z,26.03
2022-08-28T12:27:59.629Z,25.63
2022-08-28T12:30:30.764Z,26.23
2022-08-28T12:33:09.365Z,26.11
2022-08-28T12:35:37.777Z,26.55
2022-08-28T12:38:09.448Z,26.82
2022-08-28T12:40:52.916Z,26.87
2022-08-28T12:43:25.596Z,27.18
2022-08-28T12:45:56.473Z,26.55
2022-08-28T12:48:28.070Z,26.13
2022-08-28T12:51:03.298Z,26.60
2022-08-28T12:53:40.185Z,26.94
2022-08-28T12:56:11.784Z,26.81
2022-08-28T12:58:41.547Z,27.17
2022-08-28T13:01:14.059Z,27.06
2022-08-28T13:03:47.058Z,26.74
2022-08-28T13:06:15.269Z,27.14
2022-08-28T13:08:43.452Z,27.29
2022-08-28T13:11:20.001Z,27.20
2022-08-28T13:13:51.410Z,27.27
2022-08-28T13:16:39.758Z,27.26
2022-08-28T13:19:27.365Z,27.64
2022-08-28T13:22:00.550Z,27.43
2022-08-28T13:24:39.274Z,27.20
2022-08-28T13:27:21.689Z,27.40
2022-08-28T13:29:57.458Z,27.38
2022-08-28T13:32:29.228Z,27.55
2022-08-28T13:35:20.249Z,28.29
2022-08-28T13:37:50.050Z,27.61
2022-08-28T13:40:53.189Z,28.00
2022-08-28T13:43:11.923Z,27.62
2022-08-28T13:45:44.012Z,28.20
2022-08-28T13:48:16.089Z,28.32
2022-08-28T13:50:47.354Z,27.85
2022-08-28T13:53:17.156Z,27.89
2022-08-28T13:55:45.586Z,27.68
2022-08-28T13:58:16.113Z,28.10
2022-08-28T14:00:47.409Z,28.16
2022-08-28T14:03:33.609Z,28.14
2022-08-28T14:06:02.983Z,28.20
2022-08-28T14:08:31.242Z,28.13
2022-08-28T14:10:59.310Z,28.04
2022-08-28T14:13:28.866Z,28.11
2022-08-28T14:15:58.050Z,28.24
2022-08-28T14:18:26.571Z,27.96
2022-08-28T14:20:54.724Z,27.95
2022-08-28T14:23:23.191Z,27.90
2022-08-28T14:25:51.355Z,28.27
2022-08-28T14:28:19.499Z,27.89
2022-08-28T14:30:51.016Z,27.78
2022-08-28T14:33:20.812Z,28.19
2022-08-28T14:35:51.620Z,28.30
2022-08-28T14:38:36.677Z,28.23
2022-08-28T14:41:15.696Z,27.66
2022-08-28T14:43:46.894Z,28.06
2022-08-28T14:46:26.260Z,28.35
2022-08-28T14:48:56.139Z,27.49
2022-08-28T14:51:26.501Z,27.89
2022-08-28T14:53:55.037Z,28.15
2022-08-28T14:56:23.485Z,28.62
2022-08-28T14:59:34.145Z,28.64
2022-08-28T15:02:03.678Z,28.39
2022-08-28T15:04:37.962Z,28.13
2022-08-28T15:07:08.417Z,28.17
2022-08-28T15:09:38.815Z,28.60
2022-08-28T15:12:07.384Z,28.94
2022-08-28T15:14:35.979Z,28.24
2022-08-28T15:17:05.978Z,28.33
2022-08-28T15:19:34.323Z,28.20
2022-08-28T15:22:04.343Z,28.84
2022-08-28T15:24:34.651Z,28.69
2022-08-28T15:27:03.353Z,27.98
2022-08-28T15:29:31.566Z,27.46
2022-08-28T15:32:00.764Z,28.00
2022-08-28T15:34:30.749Z,28.09
2022-08-28T15:36:59.539Z,28.15
2022-08-28T15:39:47.012Z,27.83
2022-08-28T15:42:15.851Z,28.15
2022-08-28T15:44:44.517Z,28.07
2022-08-28T15:47:13.938Z,28.50
2022-08-28T15:49:49.660Z,28.06
2022-08-28T15:52:19.439Z,27.82
2022-08-28T15:54:47.618Z,27.82
2022-08-28T15:57:15.722Z,27.68
2022-08-28T15:59:49.709Z,28.03
2022-08-28T16:02:19.143Z,28.28
2022-08-28T16:04:48.843Z,28.02
2022-08-28T16:07:17.197Z,27.85
2022-08-28T16:09:47.762Z,28.08
2022-08-28T16:12:16.570Z,27.94
2022-08-28T16:14:44.991Z,27.68
2022-08-28T16:17:13.473Z,27.86
2022-08-28T16:19:42.529Z,27.64
2022-08-28T16:22:13.313Z,27.50
2022-08-28T16:24:41.438Z,27.48
2022-08-28T16:29:58.055Z,27.44
2022-08-28T16:32:26.641Z,27.38
2022-08-28T16:34:54.857Z,27.19
2022-08-28T16:35:49.336Z,27.40
2022-08-28T16:37:24.525Z,27.25
2022-08-28T16:39:56.385Z,27.25
2022-08-28T16:42:24.881Z,27.08
2022-08-28T16:44:57.419Z,26.89
2022-08-28T16:47:25.674Z,26.58
2022-08-28T16:49:57.718Z,26.62
2022-08-28T16:52:27.248Z,26.49
2022-08-28T16:54:55.370Z,26.29
2022-08-28T16:57:23.887Z,26.40
2022-08-28T16:59:53.594Z,26.14
2022-08-28T17:02:26.550Z,26.12
2022-08-28T17:04:55.372Z,26.03
2022-08-28T17:07:23.567Z,25.79
2022-08-28T17:09:53.238Z,25.85
2022-08-28T17:12:21.473Z,25.94
2022-08-28T17:14:49.548Z,25.65
2022-08-28T17:17:17.598Z,25.74
2022-08-28T17:19:45.761Z,25.53
2022-08-28T17:22:31.032Z,25.55
2022-08-28T17:25:01.642Z,25.30
2022-08-28T17:27:32.172Z,25.14
2022-08-28T17:30:01.497Z,25.28
2022-08-28T17:32:30.019Z,25.16
2022-08-28T17:34:58.109Z,25.23
2022-08-28T17:37:26.133Z,25.02
2022-08-28T17:39:54.600Z,25.01
2022-08-28T17:42:24.143Z,24.87
2022-08-28T17:44:52.333Z,24.99
2022-08-28T17:47:27.457Z,24.79
2022-08-28T17:49:59.559Z,24.73
2022-08-28T17:52:28.272Z,24.78
2022-08-28T17:54:56.996Z,24.72
2022-08-28T17:57:27.992Z,24.53
2022-08-28T17:59:56.064Z,24.42
2022-08-28T18:02:24.282Z,24.47
2022-08-28T18:04:52.556Z,24.41
2022-08-28T18:07:21.008Z,24.03
2022-08-28T18:09:51.849Z,24.11
2022-08-28T18:12:20.135Z,24.18
2022-08-28T18:14:49.640Z,24.15
2022-08-28T18:17:17.844Z,23.99
2022-08-28T18:19:46.527Z,23.96
2022-08-28T18:22:15.358Z,23.93
2022-08-28T18:24:44.016Z,23.56
2022-08-28T18:27:12.182Z,23.64
2022-08-28T18:29:40.661Z,23.61
2022-08-28T18:32:10.081Z,23.54
2022-08-28T18:34:38.210Z,23.50
2022-08-28T18:37:06.325Z,23.42
2022-08-28T18:39:35.953Z,23.35
2022-08-28T18:42:03.992Z,23.38
2022-08-28T18:44:33.390Z,23.36
2022-08-28T18:47:01.501Z,23.32
2022-08-28T18:49:35.939Z,23.22
2022-08-28T18:52:04.472Z,22.91
2022-08-28T18:54:33.256Z,22.85
2022-08-28T18:57:04.383Z,22.93
2022-08-28T18:59:35.462Z,22.93
2022-08-28T19:02:04.955Z,22.92
2022-08-28T19:04:37.276Z,22.71
2022-08-28T19:07:05.449Z,22.71
2022-08-28T19:09:34.980Z,22.39
2022-08-28T19:12:03.909Z,22.27
2022-08-28T19:14:35.137Z,22.15
2022-08-28T19:17:05.334Z,22.04
2022-08-28T19:19:38.719Z,21.96
2022-08-28T19:22:07.530Z,21.77
2022-08-28T19:24:35.612Z,21.81
2022-08-28T19:27:06.241Z,21.89
2022-08-28T19:29:34.372Z,21.91
2022-08-28T19:32:06.549Z,21.75
2022-08-28T19:34:36.804Z,21.68
2022-08-28T19:37:06.691Z,21.68
2022-08-28T19:39:34.819Z,21.58
2022-08-28T19:42:03.029Z,21.56
2022-08-28T19:44:31.101Z,21.42
2022-08-28T19:46:59.280Z,21.36
2022-08-28T19:49:27.314Z,21.26
2022-08-28T19:51:56.858Z,21.20
2022-08-28T19:54:24.954Z,21.02
2022-08-28T19:56:53.319Z,21.16
2022-08-28T19:59:26.510Z,21.27
2022-08-28T20:01:55.641Z,21.22
2022-08-28T20:04:24.490Z,20.94
2022-08-28T20:06:54.101Z,21.07
2022-08-28T20:09:24.073Z,21.04
2022-08-28T20:11:52.627Z,20.90
2022-08-28T20:14:21.901Z,20.78
2022-08-28T20:16:54.683Z,20.88
2022-08-28T20:19:23.913Z,20.79
2022-08-28T20:21:52.999Z,20.89
2022-08-28T20:24:25.148Z,20.67
2022-08-28T20:26:54.946Z,20.52
2022-08-28T20:29:24.812Z,20.54
2022-08-28T20:31:53.097Z,20.61
2022-08-28T20:34:21.932Z,20.17
2022-08-28T20:36:50.125Z,20.20
2022-08-28T20:39:18.541Z,20.31
2022-08-28T20:41:49.937Z,20.37
2022-08-28T20:44:20.008Z,20.07
2022-08-28T20:46:51.460Z,20.30
2022-08-28T20:49:22.125Z,20.33
2022-08-28T20:51:53.907Z,20.32
2022-08-28T20:54:22.529Z,20.30
2022-08-28T20:56:52.695Z,20.20
2022-08-28T20:59:23.159Z,20.19
2022-08-28T21:01:52.018Z,20.13
2022-08-28T21:04:20.632Z,20.19
2022-08-28T21:06:48.757Z,20.12
2022-08-28T21:09:18.534Z,20.13
2022-08-28T21:11:47.513Z,20.25
2022-08-28T21:14:17.234Z,20.17
2022-08-28T21:16:45.910Z,20.16
2022-08-28T21:19:15.819Z,20.17
2022-08-28T21:21:44.367Z,19.99
2022-08-28T21:24:15.865Z,19.97
2022-08-28T21:26:44.706Z,19.96
2022-08-28T21:29:14.120Z,19.75
2022-08-28T21:31:44.837Z,19.61
2022-08-28T21:34:13.053Z,19.61
2022-08-28T21:36:49.989Z,19.46
2022-08-28T21:39:20.736Z,19.50
2022-08-28T21:41:49.602Z,19.44
2022-08-28T21:44:17.813Z,19.31
2022-08-28T21:46:47.374Z,19.07
2022-08-28T21:49:15.432Z,19.17
2022-08-28T21:51:43.450Z,19.08
2022-08-28T21:54:11.524Z,18.98
2022-08-28T21:56:39.546Z,19.06
2022-08-28T21:59:07.649Z,19.05
2022-08-28T22:01:35.834Z,19.35
2022-08-28T22:04:06.100Z,18.92
2022-08-28T22:06:34.700Z,18.76
2022-08-28T22:09:02.974Z,18.60
2022-08-28T22:11:31.113Z,18.83
2022-08-28T22:13:59.202Z,18.89
2022-08-28T22:16:28.173Z,18.45
2022-08-28T22:18:56.514Z,18.60
2022-08-28T22:21:45.388Z,18.49
2022-08-28T22:24:14.456Z,18.54
2022-08-28T22:26:44.094Z,18.74
2022-08-28T22:29:13.213Z,18.91
2022-08-28T22:31:45.852Z,18.59
2022-08-28T22:34:15.379Z,18.40
2022-08-28T22:36:44.825Z,18.65
2022-08-28T22:39:12.897Z,18.62
2022-08-28T22:41:42.279Z,18.35
2022-08-28T22:44:10.588Z,18.28
2022-08-28T22:46:38.640Z,18.44
2022-08-28T22:49:06.694Z,18.30
2022-08-28T22:51:35.874Z,18.13
2022-08-28T22:54:05.936Z,18.08
2022-08-28T22:56:34.007Z,18.05
2022-08-28T22:59:02.063Z,18.07
2022-08-28T23:01:30.529Z,17.95
2022-08-28T23:04:01.468Z,18.03
2022-08-28T23:06:29.827Z,17.92
2022-08-28T23:08:57.922Z,17.92
2022-08-28T23:11:27.477Z,17.79
2022-08-28T23:13:55.539Z,17.64
2022-08-28T23:16:25.066Z,17.60
2022-08-28T23:19:09.217Z,17.90
2022-08-28T23:21:40.897Z,18.03
2022-08-28T23:24:11.577Z,17.91
2022-08-28T23:26:41.948Z,17.94
2022-08-28T23:29:11.663Z,18.11
2022-08-28T23:31:40.704Z,17.84
2022-08-28T23:34:09.218Z,17.75
2022-08-28T23:36:39.533Z,17.72
2022-08-28T23:39:11.553Z,17.88
2022-08-28T23:41:41.301Z,18.01
2022-08-28T23:44:10.723Z,17.62
2022-08-28T23:46:41.512Z,17.66
2022-08-28T23:49:10.884Z,17.66
2022-08-28T23:51:39.223Z,17.49
2022-08-28T23:54:07.714Z,17.62
2022-08-28T23:56:36.189Z,17.61
2022-08-28T23:59:06.464Z,17.47
